sensor_id;sensor_type;location;lat;lon;timestamp;pressure;altitude;pressure_sealevel;temperature;humidity
41624;BME280;27319;50.306;18.926;2023-02-17T00:02:04;98728.88;;;1.79;94.07
41624;BME280;27319;50.306;18.926;2023-02-17T00:05:06;98728.88;;;1.67;93.87
41624;BME280;27319;50.306;18.926;2023-02-17T00:08:06;98721.34;;;1.73;93.79
41624;BME280;27319;50.306;18.926;2023-02-17T00:11:07;98726.31;;;1.65;93.86
41624;BME280;27319;50.306;18.926;2023-02-17T00:14:10;98720.47;;;1.60;94.45
41624;BME280;27319;50.306;18.926;2023-02-17T00:17:11;98726.72;;;1.59;94.49
41624;BME280;27319;50.306;18.926;2023-02-17T00:20:12;98717.19;;;1.57;94.51
41624;BME280;27319;50.306;18.926;2023-02-17T00:23:13;98719.53;;;1.61;94.57
41624;BME280;27319;50.306;18.926;2023-02-17T00:26:14;98718.06;;;1.70;94.57
41624;BME280;27319;50.306;18.926;2023-02-17T00:29:15;98708.53;;;1.67;94.14
41624;BME280;27319;50.306;18.926;2023-02-17T00:32:16;98710.84;;;1.59;94.65
41624;BME280;27319;50.306;18.926;2023-02-17T00:35:57;98709.56;;;1.65;94.44
41624;BME280;27319;50.306;18.926;2023-02-17T00:39:38;98713.81;;;1.67;94.46
41624;BME280;27319;50.306;18.926;2023-02-17T00:42:38;98712.34;;;1.76;93.98
41624;BME280;27319;50.306;18.926;2023-02-17T00:45:39;98714.78;;;1.66;94.64
41624;BME280;27319;50.306;18.926;2023-02-17T00:48:40;98715.50;;;1.68;94.36
41624;BME280;27319;50.306;18.926;2023-02-17T00:51:41;98710.44;;;1.65;94.47
41624;BME280;27319;50.306;18.926;2023-02-17T00:54:42;98706.44;;;1.72;94.32
41624;BME280;27319;50.306;18.926;2023-02-17T00:57:43;98694.03;;;1.60;94.58
41624;BME280;27319;50.306;18.926;2023-02-17T01:00:43;98685.13;;;1.61;94.71
41624;BME280;27319;50.306;18.926;2023-02-17T01:03:44;98687.38;;;1.67;94.10
41624;BME280;27319;50.306;18.926;2023-02-17T01:06:45;98694.88;;;1.73;94.30
41624;BME280;27319;50.306;18.926;2023-02-17T01:09:46;98686.72;;;1.64;94.27
41624;BME280;27319;50.306;18.926;2023-02-17T01:12:46;98697.13;;;1.79;94.23
41624;BME280;27319;50.306;18.926;2023-02-17T01:15:48;98687.31;;;1.81;93.43
41624;BME280;27319;50.306;18.926;2023-02-17T01:18:49;98687.72;;;1.75;93.37
41624;BME280;27319;50.306;18.926;2023-02-17T01:21:50;98688.66;;;1.87;92.97
41624;BME280;27319;50.306;18.926;2023-02-17T01:24:51;98685.28;;;1.85;93.28
41624;BME280;27319;50.306;18.926;2023-02-17T01:27:52;98683.16;;;1.77;93.33
41624;BME280;27319;50.306;18.926;2023-02-17T01:30:53;98687.19;;;1.70;93.38
41624;BME280;27319;50.306;18.926;2023-02-17T01:33:58;98680.69;;;1.62;93.12
41624;BME280;27319;50.306;18.926;2023-02-17T01:36:59;98676.03;;;1.65;93.47
41624;BME280;27319;50.306;18.926;2023-02-17T01:40:00;98686.81;;;1.62;93.42
41624;BME280;27319;50.306;18.926;2023-02-17T01:43:00;98682.47;;;1.61;93.57
41624;BME280;27319;50.306;18.926;2023-02-17T01:46:02;98677.75;;;1.66;93.28
41624;BME280;27319;50.306;18.926;2023-02-17T01:49:05;98687.72;;;1.75;93.50
41624;BME280;27319;50.306;18.926;2023-02-17T01:52:09;98687.41;;;1.80;93.08
41624;BME280;27319;50.306;18.926;2023-02-17T01:55:13;98678.81;;;1.76;92.97
41624;BME280;27319;50.306;18.926;2023-02-17T01:58:15;98671.28;;;1.83;93.34
41624;BME280;27319;50.306;18.926;2023-02-17T02:01:18;98672.69;;;1.88;92.11
41624;BME280;27319;50.306;18.926;2023-02-17T02:04:21;98672.59;;;1.90;92.78
41624;BME280;27319;50.306;18.926;2023-02-17T02:07:23;98677.22;;;1.86;92.81
41624;BME280;27319;50.306;18.926;2023-02-17T02:10:25;98674.72;;;1.85;92.65
41624;BME280;27319;50.306;18.926;2023-02-17T02:13:25;98670.25;;;1.85;92.76
41624;BME280;27319;50.306;18.926;2023-02-17T02:26:00;98658.81;;;1.97;91.91
41624;BME280;27319;50.306;18.926;2023-02-17T02:32:31;98650.16;;;1.95;91.94
41624;BME280;27319;50.306;18.926;2023-02-17T02:38:44;98645.72;;;1.96;92.05
41624;BME280;27319;50.306;18.926;2023-02-17T02:41:51;98635.34;;;2.05;91.77
41624;BME280;27319;50.306;18.926;2023-02-17T02:44:52;98637.44;;;2.00;92.08
41624;BME280;27319;50.306;18.926;2023-02-17T02:47:54;98637.66;;;2.10;91.83
41624;BME280;27319;50.306;18.926;2023-02-17T03:00:55;98632.06;;;2.02;92.18
41624;BME280;27319;50.306;18.926;2023-02-17T03:07:04;98629.94;;;1.94;92.53
41624;BME280;27319;50.306;18.926;2023-02-17T03:10:06;98625.91;;;2.01;92.42
41624;BME280;27319;50.306;18.926;2023-02-17T03:13:07;98619.25;;;1.96;92.44
41624;BME280;27319;50.306;18.926;2023-02-17T03:16:08;98622.63;;;1.98;92.55
41624;BME280;27319;50.306;18.926;2023-02-17T03:19:09;98615.63;;;2.09;91.89
41624;BME280;27319;50.306;18.926;2023-02-17T03:25:14;98610.44;;;1.95;92.67
41624;BME280;27319;50.306;18.926;2023-02-17T03:28:15;98608.75;;;1.94;92.56
41624;BME280;27319;50.306;18.926;2023-02-17T03:31:15;98609.91;;;2.03;92.71
41624;BME280;27319;50.306;18.926;2023-02-17T03:34:16;98612.13;;;1.96;92.93
41624;BME280;27319;50.306;18.926;2023-02-17T03:37:17;98606.41;;;2.02;92.61
41624;BME280;27319;50.306;18.926;2023-02-17T03:40:18;98608.00;;;2.05;92.43
41624;BME280;27319;50.306;18.926;2023-02-17T03:43:19;98612.34;;;2.06;92.49
41624;BME280;27319;50.306;18.926;2023-02-17T03:46:20;98608.09;;;2.16;92.15
41624;BME280;27319;50.306;18.926;2023-02-17T03:49:21;98604.28;;;2.20;91.74
41624;BME280;27319;50.306;18.926;2023-02-17T03:52:22;98594.22;;;2.25;91.92
41624;BME280;27319;50.306;18.926;2023-02-17T03:55:22;98594.72;;;2.30;91.29
41624;BME280;27319;50.306;18.926;2023-02-17T03:58:23;98590.00;;;2.22;91.90
41624;BME280;27319;50.306;18.926;2023-02-17T04:01:24;98590.38;;;2.29;91.69
41624;BME280;27319;50.306;18.926;2023-02-17T04:04:28;98595.91;;;2.13;92.56
41624;BME280;27319;50.306;18.926;2023-02-17T04:07:29;98596.34;;;2.07;93.30
41624;BME280;27319;50.306;18.926;2023-02-17T04:10:29;98597.41;;;2.05;93.12
41624;BME280;27319;50.306;18.926;2023-02-17T04:13:30;98601.88;;;2.04;93.74
41624;BME280;27319;50.306;18.926;2023-02-17T04:16:31;98593.81;;;2.06;93.79
41624;BME280;27319;50.306;18.926;2023-02-17T04:19:32;98593.59;;;2.09;93.76
41624;BME280;27319;50.306;18.926;2023-02-17T04:22:33;98585.13;;;2.04;93.90
41624;BME280;27319;50.306;18.926;2023-02-17T04:25:34;98592.53;;;2.11;93.68
41624;BME280;27319;50.306;18.926;2023-02-17T04:28:39;98585.97;;;2.17;93.71
41624;BME280;27319;50.306;18.926;2023-02-17T04:31:40;98576.44;;;2.14;93.57
41624;BME280;27319;50.306;18.926;2023-02-17T04:34:41;98580.91;;;2.14;93.77
41624;BME280;27319;50.306;18.926;2023-02-17T04:37:42;98581.72;;;2.14;94.26
41624;BME280;27319;50.306;18.926;2023-02-17T04:40:42;98577.28;;;2.15;93.86
41624;BME280;27319;50.306;18.926;2023-02-17T04:43:43;98579.94;;;2.15;94.03
41624;BME280;27319;50.306;18.926;2023-02-17T04:46:44;98575.06;;;2.21;94.06
41624;BME280;27319;50.306;18.926;2023-02-17T04:49:45;98574.31;;;2.19;94.23
41624;BME280;27319;50.306;18.926;2023-02-17T04:52:45;98571.22;;;2.25;94.08
41624;BME280;27319;50.306;18.926;2023-02-17T04:55:50;98566.44;;;2.30;93.76
41624;BME280;27319;50.306;18.926;2023-02-17T04:58:51;98570.06;;;2.29;93.98
41624;BME280;27319;50.306;18.926;2023-02-17T05:01:52;98566.34;;;2.32;94.06
41624;BME280;27319;50.306;18.926;2023-02-17T05:04:53;98557.78;;;2.28;94.21
41624;BME280;27319;50.306;18.926;2023-02-17T05:07:54;98549.94;;;2.27;93.91
41624;BME280;27319;50.306;18.926;2023-02-17T05:10:54;98543.34;;;2.32;94.44
41624;BME280;27319;50.306;18.926;2023-02-17T05:13:56;98543.78;;;2.26;94.84
41624;BME280;27319;50.306;18.926;2023-02-17T05:16:56;98542.41;;;2.33;94.29
41624;BME280;27319;50.306;18.926;2023-02-17T05:19:57;98536.34;;;2.31;94.51
41624;BME280;27319;50.306;18.926;2023-02-17T05:22:58;98536.53;;;2.41;94.05
41624;BME280;27319;50.306;18.926;2023-02-17T05:25:59;98538.81;;;2.34;94.60
41624;BME280;27319;50.306;18.926;2023-02-17T05:28:59;98547.47;;;2.36;94.50
41624;BME280;27319;50.306;18.926;2023-02-17T05:32:01;98548.06;;;2.52;93.65
41624;BME280;27319;50.306;18.926;2023-02-17T05:35:01;98547.28;;;2.63;93.21
41624;BME280;27319;50.306;18.926;2023-02-17T05:38:02;98547.50;;;2.60;93.47
41624;BME280;27319;50.306;18.926;2023-02-17T05:41:03;98552.28;;;2.78;92.70
41624;BME280;27319;50.306;18.926;2023-02-17T05:44:04;98556.66;;;2.79;92.29
41624;BME280;27319;50.306;18.926;2023-02-17T05:47:05;98552.75;;;2.72;92.80
41624;BME280;27319;50.306;18.926;2023-02-17T05:50:06;98544.28;;;2.67;94.04
41624;BME280;27319;50.306;18.926;2023-02-17T05:53:06;98542.06;;;2.61;93.85
41624;BME280;27319;50.306;18.926;2023-02-17T05:56:07;98545.38;;;2.65;94.08
41624;BME280;27319;50.306;18.926;2023-02-17T05:59:08;98536.63;;;2.75;93.36
41624;BME280;27319;50.306;18.926;2023-02-17T06:02:09;98535.41;;;2.68;94.24
41624;BME280;27319;50.306;18.926;2023-02-17T06:05:10;98538.03;;;2.92;93.42
41624;BME280;27319;50.306;18.926;2023-02-17T06:08:11;98535.47;;;2.90;93.32
41624;BME280;27319;50.306;18.926;2023-02-17T06:11:11;98526.91;;;2.87;93.89
41624;BME280;27319;50.306;18.926;2023-02-17T06:14:32;98519.16;;;2.96;93.80
41624;BME280;27319;50.306;18.926;2023-02-17T06:17:33;98519.38;;;2.93;93.90
41624;BME280;27319;50.306;18.926;2023-02-17T06:20:34;98515.03;;;2.92;93.41
41624;BME280;27319;50.306;18.926;2023-02-17T06:24:15;98516.50;;;3.07;94.03
41624;BME280;27319;50.306;18.926;2023-02-17T06:27:55;98521.19;;;3.04;93.51
41624;BME280;27319;50.306;18.926;2023-02-17T06:31:36;98515.22;;;3.13;93.28
41624;BME280;27319;50.306;18.926;2023-02-17T06:35:17;98516.84;;;3.26;92.98
41624;BME280;27319;50.306;18.926;2023-02-17T06:38:53;98519.38;;;3.39;92.26
41624;BME280;27319;50.306;18.926;2023-02-17T06:41:54;98508.91;;;3.37;92.41
41624;BME280;27319;50.306;18.926;2023-02-17T06:44:55;98500.47;;;3.43;92.77
41624;BME280;27319;50.306;18.926;2023-02-17T06:48:35;98501.69;;;3.50;92.03
41624;BME280;27319;50.306;18.926;2023-02-17T06:51:36;98507.50;;;3.55;92.31
41624;BME280;27319;50.306;18.926;2023-02-17T06:54:36;98498.19;;;3.61;91.90
41624;BME280;27319;50.306;18.926;2023-02-17T06:57:37;98499.75;;;3.63;91.69
41624;BME280;27319;50.306;18.926;2023-02-17T07:00:38;98496.63;;;3.69;91.17
41624;BME280;27319;50.306;18.926;2023-02-17T07:03:39;98496.53;;;3.71;91.41
41624;BME280;27319;50.306;18.926;2023-02-17T07:06:40;98503.78;;;3.80;91.49
41624;BME280;27319;50.306;18.926;2023-02-17T07:09:41;98500.75;;;3.73;92.03
41624;BME280;27319;50.306;18.926;2023-02-17T07:12:42;98506.06;;;3.73;91.01
41624;BME280;27319;50.306;18.926;2023-02-17T07:15:43;98515.00;;;3.94;90.72
41624;BME280;27319;50.306;18.926;2023-02-17T07:19:23;98516.44;;;3.98;90.71
41624;BME280;27319;50.306;18.926;2023-02-17T07:22:24;98518.13;;;4.10;89.92
41624;BME280;27319;50.306;18.926;2023-02-17T07:26:05;98511.97;;;4.21;90.17
41624;BME280;27319;50.306;18.926;2023-02-17T07:29:45;98505.81;;;4.20;90.20
41624;BME280;27319;50.306;18.926;2023-02-17T07:33:26;98507.94;;;4.37;89.46
41624;BME280;27319;50.306;18.926;2023-02-17T07:37:07;98511.47;;;4.38;90.53
41624;BME280;27319;50.306;18.926;2023-02-17T07:40:08;98513.03;;;4.40;89.65
41624;BME280;27319;50.306;18.926;2023-02-17T07:43:09;98516.88;;;4.58;88.43
41624;BME280;27319;50.306;18.926;2023-02-17T07:46:10;98505.97;;;4.61;88.00
41624;BME280;27319;50.306;18.926;2023-02-17T07:49:11;98503.19;;;4.63;87.80
41624;BME280;27319;50.306;18.926;2023-02-17T07:52:17;98489.78;;;4.64;88.43
41624;BME280;27319;50.306;18.926;2023-02-17T07:55:17;98486.34;;;4.73;87.56
41624;BME280;27319;50.306;18.926;2023-02-17T07:58:18;98498.44;;;4.77;87.02
41624;BME280;27319;50.306;18.926;2023-02-17T08:01:21;98494.69;;;4.80;87.47
41624;BME280;27319;50.306;18.926;2023-02-17T08:05:00;98481.00;;;4.84;87.04
41624;BME280;27319;50.306;18.926;2023-02-17T08:08:00;98487.75;;;4.88;86.86
41624;BME280;27319;50.306;18.926;2023-02-17T08:11:20;98483.09;;;5.01;86.37
41624;BME280;27319;50.306;18.926;2023-02-17T08:14:39;98476.34;;;4.97;86.39
41624;BME280;27319;50.306;18.926;2023-02-17T08:17:40;98473.09;;;4.94;86.39
41624;BME280;27319;50.306;18.926;2023-02-17T08:20:41;98471.00;;;4.97;87.25
41624;BME280;27319;50.306;18.926;2023-02-17T08:23:42;98479.97;;;4.96;86.43
41624;BME280;27319;50.306;18.926;2023-02-17T08:26:42;98469.41;;;5.06;87.02
41624;BME280;27319;50.306;18.926;2023-02-17T08:29:43;98473.19;;;5.03;86.65
41624;BME280;27319;50.306;18.926;2023-02-17T08:32:44;98467.78;;;5.14;86.97
41624;BME280;27319;50.306;18.926;2023-02-17T08:35:47;98481.16;;;5.03;88.90
41624;BME280;27319;50.306;18.926;2023-02-17T08:38:48;98488.19;;;5.04;90.58
41624;BME280;27319;50.306;18.926;2023-02-17T08:41:50;98481.41;;;5.00;91.05
41624;BME280;27319;50.306;18.926;2023-02-17T08:44:51;98482.16;;;4.91;91.54
41624;BME280;27319;50.306;18.926;2023-02-17T08:47:52;98479.34;;;5.04;90.99
41624;BME280;27319;50.306;18.926;2023-02-17T08:51:33;98468.13;;;5.00;91.53
41624;BME280;27319;50.306;18.926;2023-02-17T08:55:13;98462.75;;;5.11;90.90
41624;BME280;27319;50.306;18.926;2023-02-17T08:58:54;98461.94;;;5.20;91.02
41624;BME280;27319;50.306;18.926;2023-02-17T09:02:34;98468.78;;;5.34;88.61
41624;BME280;27319;50.306;18.926;2023-02-17T09:06:15;98486.34;;;5.25;89.89
41624;BME280;27319;50.306;18.926;2023-02-17T09:09:18;98482.75;;;5.26;89.16
41624;BME280;27319;50.306;18.926;2023-02-17T09:12:19;98486.13;;;5.28;89.41
41624;BME280;27319;50.306;18.926;2023-02-17T09:15:59;98477.78;;;5.42;89.27
41624;BME280;27319;50.306;18.926;2023-02-17T09:19:40;98464.69;;;5.50;89.17
41624;BME280;27319;50.306;18.926;2023-02-17T09:23:21;98465.75;;;5.38;90.37
41624;BME280;27319;50.306;18.926;2023-02-17T09:27:01;98453.19;;;5.50;90.73
41624;BME280;27319;50.306;18.926;2023-02-17T09:30:22;98455.72;;;5.51;90.07
41624;BME280;27319;50.306;18.926;2023-02-17T09:33:23;98456.63;;;5.61;89.40
41624;BME280;27319;50.306;18.926;2023-02-17T09:36:25;98448.09;;;5.67;89.09
41624;BME280;27319;50.306;18.926;2023-02-17T09:39:26;98443.03;;;5.64;88.89
41624;BME280;27319;50.306;18.926;2023-02-17T09:42:27;98447.28;;;5.46;89.65
41624;BME280;27319;50.306;18.926;2023-02-17T09:45:31;98445.66;;;5.55;90.27
41624;BME280;27319;50.306;18.926;2023-02-17T09:48:34;98442.88;;;5.56;91.78
41624;BME280;27319;50.306;18.926;2023-02-17T09:51:43;98447.22;;;5.57;91.67
41624;BME280;27319;50.306;18.926;2023-02-17T09:58:47;98457.31;;;5.63;92.15
41624;BME280;27319;50.306;18.926;2023-02-17T10:06:08;98461.13;;;5.70;92.85
41624;BME280;27319;50.306;18.926;2023-02-17T10:12:17;98463.63;;;5.62;92.77
41624;BME280;27319;50.306;18.926;2023-02-17T10:15:23;98453.50;;;5.56;92.85
41624;BME280;27319;50.306;18.926;2023-02-17T10:21:41;98449.59;;;5.60;92.46
41624;BME280;27319;50.306;18.926;2023-02-17T10:24:43;98446.03;;;5.71;92.46
41624;BME280;27319;50.306;18.926;2023-02-17T10:27:45;98441.47;;;5.62;92.65
41624;BME280;27319;50.306;18.926;2023-02-17T10:31:04;98434.78;;;5.67;91.94
41624;BME280;27319;50.306;18.926;2023-02-17T10:34:10;98434.25;;;5.73;91.35
41624;BME280;27319;50.306;18.926;2023-02-17T10:37:14;98419.97;;;5.74;90.99
41624;BME280;27319;50.306;18.926;2023-02-17T10:40:18;98413.78;;;5.74;91.12
41624;BME280;27319;50.306;18.926;2023-02-17T10:43:21;98405.50;;;5.67;91.50
41624;BME280;27319;50.306;18.926;2023-02-17T10:46:26;98407.97;;;5.89;90.07
41624;BME280;27319;50.306;18.926;2023-02-17T10:49:35;98397.63;;;5.86;90.82
41624;BME280;27319;50.306;18.926;2023-02-17T10:52:37;98397.75;;;5.85;90.83
41624;BME280;27319;50.306;18.926;2023-02-17T10:59:32;98376.88;;;5.90;92.66
41624;BME280;27319;50.306;18.926;2023-02-17T11:05:56;98344.13;;;6.08;92.24
41624;BME280;27319;50.306;18.926;2023-02-17T11:09:02;98349.56;;;6.07;90.65
41624;BME280;27319;50.306;18.926;2023-02-17T11:12:39;98335.38;;;5.97;90.74
41624;BME280;27319;50.306;18.926;2023-02-17T11:16:39;98336.50;;;6.04;89.81
41624;BME280;27319;50.306;18.926;2023-02-17T11:23:45;98311.44;;;6.25;89.29
41624;BME280;27319;50.306;18.926;2023-02-17T11:27:22;98304.16;;;6.18;89.07
41624;BME280;27319;50.306;18.926;2023-02-17T11:30:39;98310.47;;;6.26;88.32
41624;BME280;27319;50.306;18.926;2023-02-17T11:33:40;98302.34;;;6.28;88.34
41624;BME280;27319;50.306;18.926;2023-02-17T11:36:42;98311.84;;;6.21;88.13
41624;BME280;27319;50.306;18.926;2023-02-17T11:39:48;98317.91;;;6.32;87.74
41624;BME280;27319;50.306;18.926;2023-02-17T11:42:58;98308.34;;;6.30;88.11
41624;BME280;27319;50.306;18.926;2023-02-17T11:49:22;98297.28;;;6.15;88.37
41624;BME280;27319;50.306;18.926;2023-02-17T11:52:33;98297.56;;;6.31;88.57
41624;BME280;27319;50.306;18.926;2023-02-17T12:02:52;98279.59;;;6.14;89.21
41624;BME280;27319;50.306;18.926;2023-02-17T12:10:14;98281.84;;;6.28;89.14
41624;BME280;27319;50.306;18.926;2023-02-17T12:17:18;98277.91;;;6.32;89.20
41624;BME280;27319;50.306;18.926;2023-02-17T12:24:40;98269.78;;;6.43;89.17
41624;BME280;27319;50.306;18.926;2023-02-17T12:37:00;98255.19;;;6.47;89.03
41624;BME280;27319;50.306;18.926;2023-02-17T12:43:29;98243.94;;;6.44;88.94
41624;BME280;27319;50.306;18.926;2023-02-17T12:46:34;98242.25;;;6.52;89.04
41624;BME280;27319;50.306;18.926;2023-02-17T12:49:38;98236.13;;;6.42;89.62
41624;BME280;27319;50.306;18.926;2023-02-17T12:52:42;98221.75;;;6.62;88.29
41624;BME280;27319;50.306;18.926;2023-02-17T12:55:49;98235.25;;;6.51;88.74
41624;BME280;27319;50.306;18.926;2023-02-17T12:58:53;98217.88;;;6.47;88.97
41624;BME280;27319;50.306;18.926;2023-02-17T13:02:17;98206.22;;;6.48;89.22
41624;BME280;27319;50.306;18.926;2023-02-17T13:05:24;98200.72;;;6.59;89.12
41624;BME280;27319;50.306;18.926;2023-02-17T13:11:33;98192.34;;;6.45;89.19
41624;BME280;27319;50.306;18.926;2023-02-17T13:14:39;98186.97;;;6.54;89.00
41624;BME280;27319;50.306;18.926;2023-02-17T13:17:51;98180.75;;;6.63;89.36
41624;BME280;27319;50.306;18.926;2023-02-17T13:20:56;98168.72;;;6.59;89.64
41624;BME280;27319;50.306;18.926;2023-02-17T13:24:00;98174.66;;;6.80;89.28
41624;BME280;27319;50.306;18.926;2023-02-17T13:27:19;98164.56;;;6.74;89.44
41624;BME280;27319;50.306;18.926;2023-02-17T13:39:33;98133.78;;;6.89;89.78
41624;BME280;27319;50.306;18.926;2023-02-17T13:42:39;98120.25;;;7.00;89.23
41624;BME280;27319;50.306;18.926;2023-02-17T13:45:46;98131.78;;;6.91;89.32
41624;BME280;27319;50.306;18.926;2023-02-17T13:49:25;98117.44;;;7.02;89.06
41624;BME280;27319;50.306;18.926;2023-02-17T13:53:18;98116.09;;;6.88;89.77
41624;BME280;27319;50.306;18.926;2023-02-17T13:56:49;98122.78;;;6.92;89.65
41624;BME280;27319;50.306;18.926;2023-02-17T14:00:29;98117.84;;;6.97;89.17
41624;BME280;27319;50.306;18.926;2023-02-17T14:04:17;98124.19;;;6.96;89.58
41624;BME280;27319;50.306;18.926;2023-02-17T14:08:04;98122.59;;;7.03;88.74
41624;BME280;27319;50.306;18.926;2023-02-17T14:11:12;98111.84;;;6.95;89.57
41624;BME280;27319;50.306;18.926;2023-02-17T14:14:14;98108.72;;;7.00;89.27
41624;BME280;27319;50.306;18.926;2023-02-17T14:17:28;98105.91;;;7.01;89.37
41624;BME280;27319;50.306;18.926;2023-02-17T14:20:31;98102.38;;;7.01;89.35
41624;BME280;27319;50.306;18.926;2023-02-17T14:23:39;98087.69;;;7.14;89.00
41624;BME280;27319;50.306;18.926;2023-02-17T14:26:45;98095.22;;;7.01;89.98
41624;BME280;27319;50.306;18.926;2023-02-17T14:29:47;98098.09;;;6.90;90.89
41624;BME280;27319;50.306;18.926;2023-02-17T14:33:27;98080.34;;;6.99;91.32
41624;BME280;27319;50.306;18.926;2023-02-17T14:37:08;98069.75;;;6.89;92.85
41624;BME280;27319;50.306;18.926;2023-02-17T14:40:17;98070.03;;;6.86;92.63
41624;BME280;27319;50.306;18.926;2023-02-17T14:43:18;98065.09;;;6.91;92.90
41624;BME280;27319;50.306;18.926;2023-02-17T14:46:19;98059.13;;;6.80;92.87
41624;BME280;27319;50.306;18.926;2023-02-17T14:49:20;98044.66;;;6.82;93.48
41624;BME280;27319;50.306;18.926;2023-02-17T14:52:21;98050.69;;;6.84;93.93
41624;BME280;27319;50.306;18.926;2023-02-17T14:55:34;98053.00;;;6.70;94.01
41624;BME280;27319;50.306;18.926;2023-02-17T14:58:36;98042.22;;;6.71;95.09
41624;BME280;27319;50.306;18.926;2023-02-17T15:01:36;98040.91;;;6.75;94.27
41624;BME280;27319;50.306;18.926;2023-02-17T15:04:37;98040.97;;;6.66;95.01
41624;BME280;27319;50.306;18.926;2023-02-17T15:07:38;98031.81;;;6.68;95.03
41624;BME280;27319;50.306;18.926;2023-02-17T15:10:39;98028.56;;;6.74;94.84
41624;BME280;27319;50.306;18.926;2023-02-17T15:13:40;98020.34;;;6.68;95.20
41624;BME280;27319;50.306;18.926;2023-02-17T15:16:40;98018.50;;;6.68;95.24
41624;BME280;27319;50.306;18.926;2023-02-17T15:19:41;98012.94;;;6.62;95.56
41624;BME280;27319;50.306;18.926;2023-02-17T15:22:45;97991.53;;;6.71;94.95
41624;BME280;27319;50.306;18.926;2023-02-17T15:25:46;97998.59;;;6.63;94.87
41624;BME280;27319;50.306;18.926;2023-02-17T15:28:47;97981.47;;;6.65;94.62
41624;BME280;27319;50.306;18.926;2023-02-17T15:31:49;97985.34;;;6.71;94.90
41624;BME280;27319;50.306;18.926;2023-02-17T15:34:50;97980.47;;;6.66;95.03
41624;BME280;27319;50.306;18.926;2023-02-17T15:37:50;97976.41;;;6.62;94.54
41624;BME280;27319;50.306;18.926;2023-02-17T15:40:51;97969.94;;;6.65;94.58
41624;BME280;27319;50.306;18.926;2023-02-17T15:43:56;97965.16;;;6.68;94.61
41624;BME280;27319;50.306;18.926;2023-02-17T15:46:57;97951.53;;;6.71;94.43
41624;BME280;27319;50.306;18.926;2023-02-17T15:49:58;97945.59;;;6.77;93.93
41624;BME280;27319;50.306;18.926;2023-02-17T15:52:59;97943.22;;;6.74;93.93
41624;BME280;27319;50.306;18.926;2023-02-17T15:55:59;97941.31;;;6.84;93.92
41624;BME280;27319;50.306;18.926;2023-02-17T15:59:02;97946.19;;;6.89;93.46
41624;BME280;27319;50.306;18.926;2023-02-17T16:02:16;97944.53;;;6.88;93.53
41624;BME280;27319;50.306;18.926;2023-02-17T16:05:19;97934.84;;;6.87;94.02
41624;BME280;27319;50.306;18.926;2023-02-17T16:08:20;97932.31;;;6.85;94.34
41624;BME280;27319;50.306;18.926;2023-02-17T16:11:20;97940.78;;;6.98;94.14
41624;BME280;27319;50.306;18.926;2023-02-17T16:14:40;97936.75;;;6.94;94.17
41624;BME280;27319;50.306;18.926;2023-02-17T16:17:41;97939.47;;;7.02;94.12
41624;BME280;27319;50.306;18.926;2023-02-17T16:20:42;97932.47;;;7.01;94.31
41624;BME280;27319;50.306;18.926;2023-02-17T16:23:43;97918.13;;;7.02;94.55
41624;BME280;27319;50.306;18.926;2023-02-17T16:26:44;97910.13;;;7.02;94.64
41624;BME280;27319;50.306;18.926;2023-02-17T16:29:45;97910.38;;;7.09;94.41
41624;BME280;27319;50.306;18.926;2023-02-17T16:32:46;97893.50;;;7.08;94.73
41624;BME280;27319;50.306;18.926;2023-02-17T16:35:48;97908.78;;;7.24;94.18
41624;BME280;27319;50.306;18.926;2023-02-17T16:38:49;97882.22;;;7.14;94.38
41624;BME280;27319;50.306;18.926;2023-02-17T16:41:50;97867.88;;;7.15;94.09
41624;BME280;27319;50.306;18.926;2023-02-17T16:44:51;97885.25;;;7.19;93.94
41624;BME280;27319;50.306;18.926;2023-02-17T16:47:56;97874.28;;;7.22;93.94
41624;BME280;27319;50.306;18.926;2023-02-17T16:50:56;97877.63;;;7.24;93.71
41624;BME280;27319;50.306;18.926;2023-02-17T16:54:37;97871.66;;;7.30;93.43
41624;BME280;27319;50.306;18.926;2023-02-17T16:58:19;97854.00;;;7.37;93.26
41624;BME280;27319;50.306;18.926;2023-02-17T17:01:58;97851.34;;;7.37;93.22
41624;BME280;27319;50.306;18.926;2023-02-17T17:05:39;97841.34;;;7.39;92.92
41624;BME280;27319;50.306;18.926;2023-02-17T17:08:42;97836.16;;;7.38;93.40
41624;BME280;27319;50.306;18.926;2023-02-17T17:11:43;97824.00;;;7.43;93.13
41624;BME280;27319;50.306;18.926;2023-02-17T17:14:43;97824.44;;;7.56;92.51
41624;BME280;27319;50.306;18.926;2023-02-17T17:20:48;97824.75;;;7.61;92.43
41624;BME280;27319;50.306;18.926;2023-02-17T17:23:49;97834.94;;;7.58;92.79
41624;BME280;27319;50.306;18.926;2023-02-17T17:26:52;97838.63;;;7.65;92.60
41624;BME280;27319;50.306;18.926;2023-02-17T17:29:55;97826.50;;;7.70;92.24
41624;BME280;27319;50.306;18.926;2023-02-17T17:32:56;97848.38;;;7.74;92.77
41624;BME280;27319;50.306;18.926;2023-02-17T17:35:57;97845.66;;;7.66;93.14
41624;BME280;27319;50.306;18.926;2023-02-17T17:38:58;97840.19;;;7.75;93.02
41624;BME280;27319;50.306;18.926;2023-02-17T17:41:59;97842.88;;;7.75;93.39
41624;BME280;27319;50.306;18.926;2023-02-17T17:45:00;97844.97;;;7.64;94.60
41624;BME280;27319;50.306;18.926;2023-02-17T17:48:00;97861.22;;;7.78;93.98
41624;BME280;27319;50.306;18.926;2023-02-17T17:51:01;97852.56;;;7.76;93.82
41624;BME280;27319;50.306;18.926;2023-02-17T17:54:03;97861.59;;;7.83;93.73
41624;BME280;27319;50.306;18.926;2023-02-17T17:57:04;97840.38;;;7.82;94.01
41624;BME280;27319;50.306;18.926;2023-02-17T18:00:06;97837.38;;;7.77;95.89
41624;BME280;27319;50.306;18.926;2023-02-17T18:03:07;97832.47;;;7.64;97.35
41624;BME280;27319;50.306;18.926;2023-02-17T18:06:09;97824.13;;;7.67;97.08
41624;BME280;27319;50.306;18.926;2023-02-17T18:09:17;97827.13;;;7.64;97.70
41624;BME280;27319;50.306;18.926;2023-02-17T18:12:19;97831.97;;;7.69;97.93
41624;BME280;27319;50.306;18.926;2023-02-17T18:15:20;97839.47;;;7.65;97.42
41624;BME280;27319;50.306;18.926;2023-02-17T18:18:21;97808.78;;;7.69;97.82
41624;BME280;27319;50.306;18.926;2023-02-17T18:21:22;97828.16;;;7.71;97.95